Time;durP1;ratioP1;P1;durP2;ratioP2;P2;SDS_P1;SDS_P2;PMS_P1;PMS_P2;Temp;Humidity;BMP_temperature;BMP_pressure;BME280_temperature;BME280_humidity;BME280_pressure;Samples;Min_cycle;Max_cycle;Signal;HPM_P1;HPM_P2
2020/12/09 00:01:57;;;;;;;33.13;11.13;;;;;;;-1.25;76.32;101211.59;127276;1092;104682;-82
2020/12/09 00:04:25;;;;;;;26.70;10.73;;;;;;;-1.29;75.72;101217.24;127311;1092;104490;-83
2020/12/09 00:06:54;;;;;;;23.77;7.93;;;;;;;-1.29;75.83;101220.71;127334;1092;104493;-80
2020/12/09 00:09:23;;;;;;;25.53;9.07;;;;;;;-1.31;75.75;101227.40;127343;1092;104458;-82
2020/12/09 00:11:55;;;;;;;27.90;9.80;;;;;;;-1.29;76.02;101228.44;127242;1092;104558;-81
2020/12/09 00:14:24;;;;;;;25.97;10.00;;;;;;;-1.28;75.86;101221.61;127312;1092;104475;-83
2020/12/09 00:16:53;;;;;;;24.57;9.30;;;;;;;-1.24;75.32;101234.02;127326;1092;104439;-82
2020/12/09 00:19:22;;;;;;;23.10;8.53;;;;;;;-1.23;76.15;101230.70;127298;1091;104494;-82
2020/12/09 00:21:51;;;;;;;23.80;8.50;;;;;;;-1.25;76.07;101232.20;127334;1092;104437;-82
2020/12/09 00:24:20;;;;;;;23.37;9.00;;;;;;;-1.28;75.74;101232.84;127311;1092;104564;-81
2020/12/09 00:26:49;;;;;;;25.13;8.40;;;;;;;-1.29;76.11;101240.42;127410;1092;104427;-83
2020/12/09 00:29:18;;;;;;;23.37;8.50;;;;;;;-1.33;75.95;101218.59;127314;1092;104490;-82
2020/12/09 00:31:47;;;;;;;32.33;11.00;;;;;;;-1.30;75.30;101228.30;127268;1092;104446;-83
2020/12/09 00:34:16;;;;;;;34.70;11.83;;;;;;;-1.32;75.42;101228.15;127209;1092;104430;-83
2020/12/09 00:36:45;;;;;;;22.73;7.60;;;;;;;-1.32;75.69;101237.55;127245;1092;104913;-83
2020/12/09 00:39:14;;;;;;;25.20;8.93;;;;;;;-1.38;75.87;101230.14;127294;1092;104395;-81
2020/12/09 00:41:42;;;;;;;27.80;9.97;;;;;;;-1.42;76.42;101229.70;127298;1090;104427;-83
2020/12/09 00:44:11;;;;;;;29.93;10.47;;;;;;;-1.43;75.86;101241.68;127264;1091;104437;-83
2020/12/09 00:46:40;;;;;;;31.53;10.37;;;;;;;-1.38;76.26;101236.97;127272;1092;104599;-82
2020/12/09 00:49:10;;;;;;;28.50;10.30;;;;;;;-1.34;76.22;101236.48;127272;1092;104927;-84
2020/12/09 00:51:39;;;;;;;20.03;7.10;;;;;;;-1.33;75.60;101246.92;127310;1092;104334;-81
2020/12/09 00:54:08;;;;;;;25.23;9.27;;;;;;;-1.35;76.65;101235.58;127288;1092;104448;-83
2020/12/09 00:56:43;;;;;;;27.90;9.80;;;;;;;-1.40;75.51;101247.13;127302;1092;104442;-83
2020/12/09 00:59:15;;;;;;;22.53;8.53;;;;;;;-1.43;75.52;101251.05;127295;1092;104434;-84
2020/12/09 01:01:44;;;;;;;27.63;9.87;;;;;;;-1.49;75.84;101252.28;127282;1092;104493;-82
2020/12/09 01:04:18;;;;;;;25.77;9.28;;;;;;;-1.54;75.94;101250.95;127278;1092;104388;-82
2020/12/09 01:06:46;;;;;;;34.27;11.73;;;;;;;-1.58;75.88;101245.36;127348;1091;104560;-84
2020/12/09 01:09:15;;;;;;;25.37;7.83;;;;;;;-1.56;76.17;101244.73;127374;1092;104455;-80
2020/12/09 01:11:44;;;;;;;30.03;10.67;;;;;;;-1.55;76.48;101243.98;127346;1092;104637;-83
2020/12/09 01:14:13;;;;;;;32.80;10.83;;;;;;;-1.49;76.68;101239.42;127307;1092;104452;-84
2020/12/09 01:16:42;;;;;;;27.97;10.23;;;;;;;-1.43;75.95;101243.33;127321;1092;104458;-82
2020/12/09 01:19:10;;;;;;;28.87;10.50;;;;;;;-1.44;76.53;101234.70;127393;1092;104436;-82
2020/12/09 01:21:39;;;;;;;27.03;8.27;;;;;;;-1.45;76.98;101238.03;127348;1092;104497;-81
2020/12/09 01:24:08;;;;;;;26.00;9.13;;;;;;;-1.50;76.82;101245.31;127310;1092;104433;-81
2020/12/09 01:26:37;;;;;;;25.90;9.23;;;;;;;-1.58;76.40;101238.53;127317;1092;104949;-83
2020/12/09 01:29:06;;;;;;;30.57;11.50;;;;;;;-1.57;76.58;101237.78;127353;1092;104382;-83
2020/12/09 01:31:35;;;;;;;34.83;11.30;;;;;;;-1.56;76.08;101249.88;127302;1092;104852;-83
2020/12/09 01:34:04;;;;;;;24.53;9.03;;;;;;;-1.58;75.85;101246.25;127314;1092;104900;-83
2020/12/09 01:36:33;;;;;;;33.57;9.97;;;;;;;-1.56;76.44;101243.83;127320;1092;104493;-83
2020/12/09 01:39:02;;;;;;;31.07;11.30;;;;;;;-1.52;76.82;101240.80;127293;1092;104623;-83
2020/12/09 01:41:31;;;;;;;32.47;12.03;;;;;;;-1.50;76.02;101241.84;127298;1092;104436;-83
2020/12/09 01:43:59;;;;;;;29.07;10.17;;;;;;;-1.49;76.61;101247.14;127255;1092;105064;-81
2020/12/09 01:46:31;;;;;;;23.23;8.20;;;;;;;-1.48;76.48;101241.23;127279;1092;104506;-81
2020/12/09 01:49:01;;;;;;;26.10;9.73;;;;;;;-1.54;75.89;101240.66;127293;1092;104440;-82
2020/12/09 01:51:31;;;;;;;27.97;9.93;;;;;;;-1.55;75.83;101241.41;127240;1090;104503;-84
2020/12/09 01:54:01;;;;;;;30.27;10.67;;;;;;;-1.49;77.22;101243.67;127260;1092;104459;-82
2020/12/09 01:56:30;;;;;;;27.23;10.80;;;;;;;-1.49;76.30;101241.09;127316;1092;104913;-83
2020/12/09 01:58:59;;;;;;;32.77;11.93;;;;;;;-1.47;75.85;101243.03;127283;1092;103879;-83
2020/12/09 02:01:29;;;;;;;29.00;10.77;;;;;;;-1.43;76.43;101240.75;127296;1092;104615;-83
2020/12/09 02:03:59;;;;;;;30.20;10.53;;;;;;;-1.44;76.92;101242.43;127281;1092;105076;-82
2020/12/09 02:06:27;;;;;;;30.33;10.07;;;;;;;-1.47;76.50;101244.71;127287;1092;104442;-84
2020/12/09 02:08:56;;;;;;;35.20;11.97;;;;;;;-1.46;76.46;101237.14;127332;1092;104491;-84
2020/12/09 02:11:25;;;;;;;31.83;11.53;;;;;;;-1.44;76.33;101234.70;127335;1092;104453;-84
2020/12/09 02:13:54;;;;;;;32.63;11.03;;;;;;;-1.45;75.96;101231.23;127318;1092;104583;-83
2020/12/09 02:16:23;;;;;;;32.53;11.63;;;;;;;-1.40;77.22;101228.17;127282;1092;104493;-83
2020/12/09 02:18:52;;;;;;;27.27;8.83;;;;;;;-1.42;76.02;101228.02;127331;1092;104552;-82
2020/12/09 02:21:23;;;;;;;34.07;12.23;;;;;;;-1.48;76.79;101223.22;127294;1092;105541;-83
2020/12/09 02:23:52;;;;;;;29.83;9.47;;;;;;;-1.47;76.54;101219.86;127287;1092;104430;-83
2020/12/09 02:26:20;;;;;;;31.30;11.17;;;;;;;-1.44;76.01;101224.41;127294;1092;103317;-82
2020/12/09 02:28:49;;;;;;;28.05;10.20;;;;;;;-1.44;76.04;101224.41;127289;1092;104519;-83
2020/12/09 02:31:18;;;;;;;32.40;11.17;;;;;;;-1.42;75.99;101222.88;127297;1091;104533;-84
2020/12/09 02:33:47;;;;;;;32.50;10.27;;;;;;;-1.37;76.16;101223.31;127329;1092;104430;-83
2020/12/09 02:36:16;;;;;;;34.03;11.83;;;;;;;-1.38;76.95;101226.67;127300;1092;104478;-82
2020/12/09 02:38:44;;;;;;;25.73;9.43;;;;;;;-1.39;76.55;101227.42;127285;1092;104603;-83
2020/12/09 02:41:13;;;;;;;26.83;9.60;;;;;;;-1.42;75.89;101227.13;127244;1092;104485;-82
2020/12/09 02:43:42;;;;;;;37.37;12.03;;;;;;;-1.50;75.87;101237.59;127294;1092;104427;-82
2020/12/09 02:46:11;;;;;;;32.13;11.80;;;;;;;-1.58;75.51;101233.39;127323;1091;104440;-82
2020/12/09 02:48:40;;;;;;;28.73;9.70;;;;;;;-1.63;76.69;101237.20;127293;1092;104446;-82
2020/12/09 02:51:09;;;;;;;29.07;10.33;;;;;;;-1.67;76.28;101241.16;127307;1092;104487;-82
2020/12/09 02:53:38;;;;;;;28.13;10.90;;;;;;;-1.73;76.43;101237.99;127276;1092;104590;-82
2020/12/09 02:56:07;;;;;;;29.63;9.80;;;;;;;-1.77;76.20;101245.27;127308;1091;104462;-84
2020/12/09 02:58:35;;;;;;;29.80;10.53;;;;;;;-1.83;76.59;101243.89;127298;1092;104499;-83
2020/12/09 03:01:04;;;;;;;28.93;9.90;;;;;;;-1.82;76.91;101239.67;127296;1092;104471;-82
2020/12/09 03:03:33;;;;;;;33.37;12.63;;;;;;;-1.82;76.64;101249.97;127267;1092;104675;-83
2020/12/09 03:06:02;;;;;;;29.00;9.60;;;;;;;-1.79;76.70;101245.12;127253;1092;104439;-83
2020/12/09 03:08:31;;;;;;;32.80;11.77;;;;;;;-1.79;76.72;101251.91;127274;1092;104933;-81
2020/12/09 03:11:01;;;;;;;29.70;11.40;;;;;;;-1.81;75.93;101252.69;127295;1092;104496;-83
2020/12/09 03:13:30;;;;;;;34.03;11.50;;;;;;;-1.77;76.58;101253.87;127318;1092;104468;-83
2020/12/09 03:15:59;;;;;;;35.67;10.33;;;;;;;-1.75;75.47;101260.07;127312;1092;103119;-82
2020/12/09 03:18:28;;;;;;;29.97;10.23;;;;;;;-1.77;75.56;101258.13;127254;1092;104486;-81
2020/12/09 03:20:57;;;;;;;28.73;9.67;;;;;;;-1.83;76.18;101258.43;127333;1092;104459;-82
2020/12/09 03:23:25;;;;;;;28.77;8.83;;;;;;;-1.82;76.69;101262.83;127325;1092;104439;-83
2020/12/09 03:25:55;;;;;;;31.23;11.57;;;;;;;-1.81;75.45;101262.98;127297;1092;104487;-83
2020/12/09 03:28:23;;;;;;;26.90;9.83;;;;;;;-1.78;76.27;101276.89;127330;1092;104437;-83
2020/12/09 03:30:52;;;;;;;28.73;11.43;;;;;;;-1.83;76.17;101264.47;127275;1092;104461;-82
2020/12/09 03:33:21;;;;;;;30.00;10.63;;;;;;;-1.86;76.12;101259.03;127339;1091;104516;-83
2020/12/09 03:35:50;;;;;;;28.87;10.80;;;;;;;-1.83;75.51;101263.58;127299;1092;104558;-83
2020/12/09 03:38:19;;;;;;;28.87;10.03;;;;;;;-1.84;76.20;101260.11;127303;1092;104519;-82
2020/12/09 03:40:49;;;;;;;24.87;7.70;;;;;;;-1.85;75.42;101268.58;127260;1092;104446;-82
2020/12/09 03:43:18;;;;;;;29.50;10.20;;;;;;;-1.88;75.65;101267.37;127277;1092;104430;-83
2020/12/09 03:45:46;;;;;;;24.43;9.30;;;;;;;-1.90;76.05;101259.52;127280;1092;104529;-83
2020/12/09 03:48:15;;;;;;;25.10;8.60;;;;;;;-1.88;74.99;101257.09;127292;1092;104468;-82
2020/12/09 03:50:44;;;;;;;27.23;9.90;;;;;;;-1.87;75.15;101264.02;127295;1092;104570;-82
2020/12/09 03:53:13;;;;;;;28.20;10.57;;;;;;;-1.84;75.32;101259.17;127273;1092;104443;-83
2020/12/09 03:55:42;;;;;;;31.33;10.67;;;;;;;-1.77;76.22;101265.84;127257;1091;104452;-83
2020/12/09 03:58:14;;;;;;;21.67;7.77;;;;;;;-1.72;75.31;101272.34;127255;1092;104459;-83
2020/12/09 04:00:53;;;;;;;24.53;8.23;;;;;;;-1.79;75.65;101267.34;127288;1092;104589;-81
2020/12/09 04:03:25;;;;;;;23.83;8.97;;;;;;;-1.84;75.01;101266.89;127300;1092;104443;-84
2020/12/09 04:05:56;;;;;;;24.13;8.90;;;;;;;-1.86;76.00;101271.89;127256;1092;104442;-83
2020/12/09 04:08:25;;;;;;;22.50;8.23;;;;;;;-1.83;75.69;101268.72;127272;1092;104436;-81
2020/12/09 04:10:58;;;;;;;31.10;9.70;;;;;;;-1.77;75.42;101274.47;127298;1092;104598;-83
2020/12/09 04:13:30;;;;;;;;;;;;;;;-1.72;75.86;101280.95;127270;1092;104497;-81
2020/12/09 04:15:59;;;;;;;28.03;10.03;;;;;;;-1.81;74.81;101277.48;127312;1092;103155;-80
2020/12/09 04:18:28;;;;;;;23.30;9.33;;;;;;;-1.82;74.78;101274.02;127353;1092;104433;-81
2020/12/09 04:20:57;;;;;;;21.53;8.03;;;;;;;-1.82;75.40;101276.59;127372;1091;104430;-80
2020/12/09 04:23:26;;;;;;;26.17;8.90;;;;;;;-1.84;74.69;101280.69;127374;1091;104477;-82
2020/12/09 04:25:54;;;;;;;28.40;9.37;;;;;;;-1.78;75.11;101282.03;127310;1092;104474;-81
2020/12/09 04:28:23;;;;;;;26.50;9.53;;;;;;;-1.76;74.97;101280.51;127321;1092;104462;-82
2020/12/09 04:30:52;;;;;;;29.57;9.80;;;;;;;-1.70;75.43;101275.95;127291;1092;104491;-80
2020/12/09 04:33:27;;;;;;;25.67;8.40;;;;;;;-1.70;74.46;101278.53;127283;1092;104622;-80
2020/12/09 04:35:58;;;;;;;26.33;8.40;;;;;;;-1.74;74.45;101279.91;127293;1092;104535;-80
2020/12/09 04:38:27;;;;;;;25.73;8.73;;;;;;;-1.73;75.38;101291.09;127426;1092;104442;-80
2020/12/09 04:40:55;;;;;;;26.93;9.00;;;;;;;-1.69;74.78;101288.08;127394;1092;104426;-82
2020/12/09 04:43:24;;;;;;;23.97;9.03;;;;;;;-1.66;75.34;101286.70;127258;1092;104474;-81
2020/12/09 04:45:53;;;;;;;25.50;8.90;;;;;;;-1.66;75.27;101283.23;127291;1092;104992;-81
2020/12/09 04:48:28;;;;;;;22.83;8.43;;;;;;;-1.70;75.33;101289.75;127310;1092;104439;-79
2020/12/09 04:51:28;;;;;;;26.67;9.27;;;;;;;-1.73;74.45;101285.95;127232;1092;104445;-82
2020/12/09 04:53:59;;;;;;;15.87;5.77;;;;;;;-1.74;74.40;101289.30;127281;1092;104484;-80
2020/12/09 04:56:37;;;;;;;23.67;8.27;;;;;;;-1.78;74.35;101293.22;127297;1091;104554;-80
2020/12/09 04:59:14;;;;;;;23.77;9.13;;;;;;;-1.85;73.94;101295.98;127269;1092;104445;-82
2020/12/09 05:02:03;;;;;;;25.67;8.37;;;;;;;-1.90;74.39;101287.81;127288;1092;104433;-82
2020/12/09 05:04:36;;;;;;;24.13;8.70;;;;;;;-1.91;74.45;101291.13;127292;1092;104461;-81
2020/12/09 05:07:09;;;;;;;30.10;9.67;;;;;;;-1.86;75.62;101289.90;127302;1092;104478;-81
2020/12/09 05:09:43;;;;;;;24.30;8.65;;;;;;;-1.84;74.39;101293.55;127276;1092;104439;-81
2020/12/09 05:12:14;;;;;;;27.83;9.73;;;;;;;-1.83;74.63;101291.88;127276;1092;104385;-81
2020/12/09 05:14:47;;;;;;;25.73;9.47;;;;;;;-1.75;74.73;101302.92;127353;1092;104516;-82
2020/12/09 05:17:18;;;;;;;28.60;10.07;;;;;;;-1.70;74.55;101301.69;127282;1092;104563;-82
2020/12/09 05:19:48;;;;;;;26.77;8.67;;;;;;;-1.65;75.46;101297.92;127285;1092;104497;-81
2020/12/09 05:22:21;;;;;;;23.10;9.10;;;;;;;-1.67;74.64;101300.34;127322;1092;104449;-82
2020/12/09 05:24:50;;;;;;;29.83;11.10;;;;;;;-1.62;75.44;101303.37;127235;1092;104539;-82
2020/12/09 05:27:19;;;;;;;23.27;7.93;;;;;;;-1.58;74.84;101301.98;127280;1092;104590;-80
2020/12/09 05:29:49;;;;;;;29.17;9.47;;;;;;;-1.64;73.98;101299.71;127283;1091;104427;-80
2020/12/09 05:32:19;;;;;;;25.17;8.40;;;;;;;-1.69;74.38;101303.52;127276;1092;104856;-80
2020/12/09 05:34:48;;;;;;;25.13;8.67;;;;;;;-1.69;74.52;101303.52;127303;1092;104557;-81
2020/12/09 05:37:16;;;;;;;29.03;10.30;;;;;;;-1.65;74.13;101310.79;127283;1092;104510;-81
2020/12/09 05:39:55;;;;;;;24.27;7.93;;;;;;;-1.69;73.93;101308.66;127296;1092;104452;-80
2020/12/09 05:42:25;;;;;;;27.77;10.33;;;;;;;-1.76;74.92;101302.02;127297;1092;104430;-81
2020/12/09 05:44:53;;;;;;;23.27;8.37;;;;;;;-1.76;74.15;101301.09;127294;1092;104577;-80
2020/12/09 05:47:22;;;;;;;25.33;9.43;;;;;;;-1.83;73.79;101305.64;127308;1092;104433;-81
2020/12/09 05:49:52;;;;;;;28.23;10.60;;;;;;;-1.84;74.09;101305.48;127262;1092;104490;-81
2020/12/09 05:52:22;;;;;;;28.97;11.10;;;;;;;-1.78;75.01;101306.09;127292;1092;105202;-81
2020/12/09 05:54:54;;;;;;;25.70;10.07;;;;;;;-1.77;74.89;101302.77;127262;1091;104495;-79
2020/12/09 05:57:26;;;;;;;26.40;9.90;;;;;;;-1.81;75.12;101305.79;127257;1092;104446;-79
2020/12/09 05:59:57;;;;;;;31.40;12.00;;;;;;;-1.85;74.11;101307.16;127204;1092;104558;-81
2020/12/09 06:02:29;;;;;;;32.87;11.40;;;;;;;-1.85;74.95;101317.45;127209;1092;104507;-82
2020/12/09 06:04:59;;;;;;;32.53;11.47;;;;;;;-1.81;74.29;101311.86;127283;1091;104427;-81
2020/12/09 06:07:30;;;;;;;29.67;11.07;;;;;;;-1.76;75.00;101319.11;127220;1092;104898;-80
2020/12/09 06:10:06;;;;;;;23.90;9.40;;;;;;;-1.74;75.04;101315.94;127314;1092;104490;-80
2020/12/09 06:12:51;;;;;;;27.27;10.40;;;;;;;-1.73;73.86;101319.41;127298;1092;104440;-80
2020/12/09 06:15:22;;;;;;;27.33;9.53;;;;;;;-1.77;74.29;101322.45;127207;1092;104336;-81
2020/12/09 06:18:07;;;;;;;33.60;11.73;;;;;;;-1.81;74.81;101324.73;127274;1092;105191;-80
2020/12/09 06:20:37;;;;;;;31.35;10.80;;;;;;;-1.76;74.59;101335.47;127254;1092;104582;-80
2020/12/09 06:23:12;;;;;;;32.45;10.25;;;;;;;-1.70;74.87;101333.50;127361;1092;104429;-80
2020/12/09 06:25:43;;;;;;;34.83;11.47;;;;;;;-1.69;73.99;101337.87;127277;1092;104657;-79
2020/12/09 06:28:14;;;;;;;28.33;10.47;;;;;;;-1.70;74.73;101346.37;127268;1092;104493;-79
2020/12/09 06:30:46;;;;;;;30.77;10.13;;;;;;;-1.76;74.55;101349.98;127408;1092;104494;-81
2020/12/09 06:33:29;;;;;;;33.07;11.07;;;;;;;-1.82;74.11;101351.20;127298;1092;104497;-81
2020/12/09 06:36:17;;;;;;;37.03;11.30;;;;;;;-1.80;74.34;101359.08;127378;1091;104549;-80
2020/12/09 06:39:12;;;;;;;29.23;10.17;;;;;;;-1.85;74.05;101355.15;127323;1092;104917;-79
2020/12/09 06:42:08;;;;;;;27.47;8.87;;;;;;;-1.89;73.26;101356.48;127340;1092;104432;-80
2020/12/09 06:44:51;;;;;;;30.03;9.67;;;;;;;-1.90;73.71;101348.62;127361;1092;104567;-79
2020/12/09 06:47:20;;;;;;;38.13;12.07;;;;;;;-1.93;73.91;101341.53;127368;1091;104433;-81
2020/12/09 06:49:50;;;;;;;31.33;11.90;;;;;;;-1.87;74.83;101347.28;127264;1092;104612;-81
2020/12/09 06:52:35;;;;;;;31.10;11.60;;;;;;;-1.82;74.00;101345.16;127272;1092;104843;-82
2020/12/09 06:55:06;;;;;;;32.13;10.70;;;;;;;-1.76;74.51;101340.62;127255;1092;104494;-81
2020/12/09 06:57:40;;;;;;;29.43;11.23;;;;;;;-1.72;73.74;101349.53;127368;1092;104502;-83
2020/12/09 07:00:18;;;;;;;31.30;11.67;;;;;;;-1.65;74.89;101345.14;127273;1092;104427;-82
2020/12/09 07:02:48;;;;;;;27.23;9.00;;;;;;;-1.55;74.42;101344.36;127281;1092;104474;-79
2020/12/09 07:05:20;;;;;;;33.83;11.70;;;;;;;-1.54;73.51;101337.53;127403;1092;104487;-81
2020/12/09 07:07:59;;;;;;;25.27;10.53;;;;;;;-1.51;73.68;101342.98;127294;1092;104568;-79
2020/12/09 07:10:31;;;;;;;28.40;10.63;;;;;;;-1.41;74.88;101342.23;127336;1092;104554;-81
2020/12/09 07:13:12;;;;;;;30.27;10.27;;;;;;;-1.33;74.81;101342.19;127320;1092;104436;-82
2020/12/09 07:15:45;;;;;;;27.40;9.97;;;;;;;-1.35;73.40;101348.87;127301;1092;104649;-83
2020/12/09 07:18:15;;;;;;;31.35;9.50;;;;;;;-1.47;73.46;101346.01;127254;1092;104472;-84
2020/12/09 07:20:48;;;;;;;33.47;11.53;;;;;;;-1.45;74.49;101346.16;127305;1092;104493;-82
2020/12/09 07:23:18;;;;;;;22.82;7.65;;;;;;;-1.46;74.43;101345.26;127269;1092;104488;-82
2020/12/09 07:25:47;;;;;;;33.93;11.47;;;;;;;-1.43;74.53;101354.02;127276;1092;104517;-80
2020/12/09 07:28:17;;;;;;;30.17;12.20;;;;;;;-1.35;74.62;101350.55;127253;1092;104449;-79
2020/12/09 07:30:48;;;;;;;36.40;12.67;;;;;;;-1.26;73.81;101348.86;127334;1092;104442;-79
2020/12/09 07:33:31;;;;;;;27.50;11.13;;;;;;;-1.18;73.95;101347.03;127320;1092;104494;-80
2020/12/09 07:36:08;;;;;;;33.90;10.10;;;;;;;-1.19;73.57;101343.52;127273;1092;104506;-80
2020/12/09 07:38:45;;;;;;;29.57;11.60;;;;;;;-1.22;73.30;101352.63;127381;1092;104452;-83
2020/12/09 07:41:14;;;;;;;27.87;10.03;;;;;;;-1.21;73.80;101351.88;127356;1092;104583;-78
2020/12/09 07:43:48;;;;;;;35.75;12.30;;;;;;;-1.21;73.85;101344.16;127388;1092;104491;-82
2020/12/09 07:46:21;;;;;;;26.97;9.97;;;;;;;-1.24;73.83;101349.91;127251;1092;104538;-82
2020/12/09 07:48:51;;;;;;;37.87;13.80;;;;;;;-1.29;73.40;101348.57;127383;1092;104502;-82
2020/12/09 07:51:28;;;;;;;32.50;10.97;;;;;;;-1.32;73.83;101346.59;127115;1094;104457;-83
2020/12/09 07:54:01;;;;;;;28.40;9.30;;;;;;;-1.37;73.23;101349.47;127276;1092;104688;-81
2020/12/09 07:56:32;;;;;;;34.50;12.13;;;;;;;-1.39;74.45;101359.63;127238;1092;104606;-81
2020/12/09 07:59:03;;;;;;;32.53;11.30;;;;;;;-1.40;73.88;101360.41;127212;1092;104667;-82
2020/12/09 08:01:35;;;;;;;35.93;12.97;;;;;;;-1.37;74.46;101364.92;127225;1092;104599;-78
2020/12/09 08:04:05;;;;;;;38.83;13.60;;;;;;;-1.35;73.59;101358.28;126899;1094;104493;-81
2020/12/09 08:06:38;;;;;;;35.47;12.03;;;;;;;-1.30;74.23;101360.52;126829;1094;104920;-85
2020/12/09 08:09:18;;;;;;;35.00;10.77;;;;;;;-1.24;73.42;101360.21;127267;1092;104452;-84
2020/12/09 08:11:51;;;;;;;32.90;13.47;;;;;;;-1.23;73.40;101359.47;127228;1092;104600;-81
2020/12/09 08:14:33;;;;;;;36.87;13.00;;;;;;;-1.17;73.76;101360.05;127278;1092;104491;-81
2020/12/09 08:17:31;;;;;;;36.20;12.20;;;;;;;-1.06;73.48;101353.36;126851;1094;104505;-81
2020/12/09 08:20:06;;;;;;;33.57;13.57;;;;;;;-1.11;73.99;101367.44;127052;1092;104500;-83
2020/12/09 08:22:53;;;;;;;25.90;9.75;;;;;;;-1.15;74.16;101365.36;127339;1092;104491;-80
2020/12/09 08:25:31;;;;;;;22.57;8.17;;;;;;;-1.17;73.64;101372.00;127238;1091;104567;-81
2020/12/09 08:28:07;;;;;;;35.25;11.75;;;;;;;-1.23;73.90;101374.92;127238;1092;105031;-82
2020/12/09 08:30:37;;;;;;;29.87;11.38;;;;;;;-1.25;74.07;101371.27;127262;1092;104599;-80
2020/12/09 08:33:20;;;;;;;33.45;12.75;;;;;;;-1.28;73.68;101371.89;127322;1092;104461;-81
2020/12/09 08:35:57;;;;;;;37.63;13.07;;;;;;;-1.27;73.44;101367.64;127282;1092;104596;-82
2020/12/09 08:38:30;;;;;;;36.93;12.53;;;;;;;-1.25;74.13;101375.52;127215;1092;104443;-81
2020/12/09 08:41:17;;;;;;;36.65;13.10;;;;;;;-1.30;73.79;101362.19;127247;1092;104583;-80
2020/12/09 08:43:55;;;;;;;38.25;11.88;;;;;;;-1.29;73.55;101364.02;127230;1093;104493;-83
2020/12/09 08:46:26;;;;;;;31.77;11.50;;;;;;;-1.29;74.31;101364.02;127261;1092;104603;-84
2020/12/09 08:48:56;;;;;;;33.40;12.10;;;;;;;-1.26;73.28;101364.31;127242;1092;104494;-82
2020/12/09 08:51:33;;;;;;;30.47;12.83;;;;;;;-1.24;74.41;101360.21;127178;1092;104452;-82
2020/12/09 08:54:10;;;;;;;37.27;13.93;;;;;;;-1.20;74.32;101363.98;127241;1092;104493;-83
2020/12/09 08:56:40;;;;;;;33.70;12.63;;;;;;;-1.13;73.90;101367.30;127229;1092;104486;-84
2020/12/09 08:59:11;;;;;;;35.07;12.47;;;;;;;-1.09;73.60;101360.79;127264;1092;104506;-84
2020/12/09 09:01:41;;;;;;;36.20;11.50;;;;;;;-1.11;73.89;101355.49;127281;1092;103193;-86
2020/12/09 09:04:13;;;;;;;34.40;12.83;;;;;;;-1.11;73.11;101358.07;127275;1092;104493;-88
2020/12/09 09:06:43;;;;;;;37.33;14.17;;;;;;;-1.12;73.62;101353.67;127329;1092;104438;-84
2020/12/09 09:09:14;;;;;;;33.40;12.50;;;;;;;-1.03;73.66;101352.72;127293;1092;104542;-86
2020/12/09 09:11:52;;;;;;;29.80;10.80;;;;;;;-1.00;73.35;101358.16;127228;1092;104685;-84
2020/12/09 09:14:22;;;;;;;33.97;13.03;;;;;;;-1.03;74.35;101347.56;127201;1092;104631;-83
2020/12/09 09:16:55;;;;;;;33.33;11.43;;;;;;;-0.99;73.81;101353.16;127202;1092;104568;-85
2020/12/09 09:19:25;;;;;;;35.58;13.85;;;;;;;-0.93;73.91;101346.02;127271;1092;104685;-86
2020/12/09 09:21:55;;;;;;;32.97;11.37;;;;;;;-0.86;73.60;101351.75;127261;1093;104507;-86
2020/12/09 09:24:28;;;;;;;32.03;11.70;;;;;;;-0.89;73.35;101348.88;127257;1092;104491;-87
2020/12/09 09:27:01;;;;;;;33.13;12.70;;;;;;;-0.93;73.95;101342.55;127251;1092;104628;-84
2020/12/09 09:29:33;;;;;;;34.13;13.37;;;;;;;-0.86;73.87;101329.45;127208;1093;104355;-87
2020/12/09 09:32:03;;;;;;;36.93;14.27;;;;;;;-0.82;74.17;101322.95;127234;1092;104609;-87
2020/12/09 09:34:33;;;;;;;33.73;12.13;;;;;;;-0.78;73.64;101325.95;127263;1092;104618;-86
2020/12/09 09:37:07;;;;;;;31.47;11.40;;;;;;;-0.75;73.61;101336.55;127272;1093;104599;-83
2020/12/09 09:39:36;;;;;;;36.17;13.18;;;;;;;-0.81;73.56;101337.63;127229;1092;104947;-81
2020/12/09 09:42:06;;;;;;;31.87;11.70;;;;;;;-0.82;73.51;101338.41;127265;1092;104488;-83
2020/12/09 09:44:36;;;;;;;34.03;13.83;;;;;;;-0.80;73.56;101337.77;127300;1092;104496;-84
2020/12/09 09:47:05;;;;;;;34.07;12.13;;;;;;;-0.73;73.72;101334.13;127258;1092;104519;-82
2020/12/09 09:49:35;;;;;;;30.77;11.13;;;;;;;-0.76;73.43;101337.30;127331;1092;104024;-83
2020/12/09 09:52:05;;;;;;;33.73;13.03;;;;;;;-0.75;73.63;101340.78;127273;1092;103789;-83
2020/12/09 09:54:47;;;;;;;33.90;12.57;;;;;;;-0.66;73.94;101335.59;127349;1092;104488;-83
2020/12/09 09:57:16;;;;;;;35.30;12.77;;;;;;;-0.63;74.17;101333.30;127399;1092;104420;-81
2020/12/09 09:59:46;;;;;;;35.87;13.77;;;;;;;-0.58;73.64;101329.47;127364;1092;104487;-82
2020/12/09 10:02:19;;;;;;;32.77;12.70;;;;;;;-0.52;74.40;101339.47;127348;1091;104561;-81
2020/12/09 10:04:48;;;;;;;38.80;12.67;;;;;;;-0.55;73.49;101322.03;127299;1092;104644;-81
2020/12/09 10:07:17;;;;;;;34.20;11.70;;;;;;;-0.53;73.37;101319.59;127269;1092;104565;-80
2020/12/09 10:09:46;;;;;;;33.47;12.30;;;;;;;-0.54;74.14;101321.27;127358;1091;104432;-79
2020/12/09 10:12:15;;;;;;;26.83;8.93;;;;;;;-0.52;73.69;101322.31;127348;1092;104598;-79
2020/12/09 10:14:48;;;;;;;29.30;11.60;;;;;;;-0.51;73.41;101325.78;127346;1092;104587;-81
2020/12/09 10:17:27;;;;;;;38.73;13.83;;;;;;;-0.52;73.60;101330.05;127252;1093;104516;-84
2020/12/09 10:20:08;;;;;;;37.93;13.40;;;;;;;-0.57;74.11;101326.14;127299;1091;104681;-83
2020/12/09 10:22:37;;;;;;;32.20;12.57;;;;;;;-0.59;74.11;101333.73;126805;1094;104446;-80
2020/12/09 10:25:10;;;;;;;36.30;13.35;;;;;;;-0.67;73.82;101331.19;126820;1094;104442;-81
2020/12/09 10:27:45;;;;;;;35.30;13.23;;;;;;;-0.67;73.83;101334.70;126894;1095;104608;-81
2020/12/09 10:30:15;;;;;;;29.03;10.70;;;;;;;-0.63;74.00;101326.47;126878;1094;104561;-79
2020/12/09 10:32:46;;;;;;;34.63;13.37;;;;;;;-0.56;74.14;101338.28;126818;1094;104612;-84
2020/12/09 10:35:16;;;;;;;33.90;11.70;;;;;;;-0.48;74.53;101337.31;126855;1094;104631;-81
2020/12/09 10:37:47;;;;;;;37.43;14.23;;;;;;;-0.43;74.57;101325.75;126854;1094;104599;-88
2020/12/09 10:43:30;;;;;;;35.80;14.67;;;;;;;-0.31;74.30;101327.64;126800;1095;104507;-84
2020/12/09 10:46:37;;;;;;;34.93;12.60;;;;;;;-0.32;73.92;101326.73;126738;1094;104571;-81
2020/12/09 10:49:44;;;;;;;29.90;11.53;;;;;;;-0.35;74.32;101336.77;126758;1095;104499;-78
2020/12/09 10:52:16;;;;;;;32.45;12.90;;;;;;;-0.37;73.64;101339.21;126795;1096;104443;-85
2020/12/09 10:54:49;;;;;;;32.90;12.23;;;;;;;-0.38;73.53;101339.96;126789;1095;105003;-79
2020/12/09 10:57:21;;;;;;;30.50;11.40;;;;;;;-0.38;74.40;101336.48;126817;1094;104513;-81
2020/12/09 11:02:47;;;;;;;36.28;14.65;;;;;;;-0.39;74.38;101322.70;126774;1094;104567;-80
2020/12/09 11:05:23;;;;;;;33.07;13.30;;;;;;;-0.42;74.38;101326.64;126824;1094;105083;-79
2020/12/09 11:07:52;;;;;;;34.40;12.13;;;;;;;-0.43;74.46;101320.59;126850;1094;104647;-82
2020/12/09 11:10:26;;;;;;;32.23;12.07;;;;;;;-0.40;74.22;101313.14;126782;1094;104654;-79
2020/12/09 11:13:13;;;;;;;;;;;;;;;;;;;;;
2020/12/09 11:15:49;;;;;;;29.03;10.07;;;;;;;-0.38;74.63;101313.28;126768;1094;104774;-79
2020/12/09 11:18:23;;;;;;;38.23;13.53;;;;;;;-0.44;74.65;101317.87;126811;1094;104811;-85
2020/12/09 11:20:55;;;;;;;32.00;10.90;;;;;;;-0.48;73.80;101302.87;126796;1094;104446;-82
2020/12/09 11:23:29;;;;;;;36.87;13.83;;;;;;;-0.50;73.54;101302.72;127227;1092;104445;-81
2020/12/09 11:25:59;;;;;;;31.43;10.43;;;;;;;-0.50;74.27;101307.87;127246;1092;104590;-83
2020/12/09 11:28:30;;;;;;;35.13;14.53;;;;;;;-0.47;74.11;101303.01;127309;1092;105096;-85